sensor_id;sensor_type;location;lat;lon;timestamp;temperature;humidity
70089;HTU21D;57460;47.134;19.888;2023-05-17T00:01:51;17.78;80.14
70089;HTU21D;57460;47.134;19.888;2023-05-17T00:04:17;17.77;79.90
70089;HTU21D;57460;47.134;19.888;2023-05-17T00:06:44;17.76;79.91
70089;HTU21D;57460;47.134;19.888;2023-05-17T00:09:10;17.73;79.70
70089;HTU21D;57460;47.134;19.888;2023-05-17T00:11:36;17.70;79.66
70089;HTU21D;57460;47.134;19.888;2023-05-17T00:14:01;17.67;79.43
70089;HTU21D;57460;47.134;19.888;2023-05-17T00:16:27;17.64;79.52
70089;HTU21D;57460;47.134;19.888;2023-05-17T00:18:53;17.60;79.35
70089;HTU21D;57460;47.134;19.888;2023-05-17T00:21:19;17.59;79.31
70089;HTU21D;57460;47.134;19.888;2023-05-17T00:23:45;17.52;79.27
70089;HTU21D;57460;47.134;19.888;2023-05-17T00:26:10;17.51;79.09
70089;HTU21D;57460;47.134;19.888;2023-05-17T00:28:38;17.43;78.96
70089;HTU21D;57460;47.134;19.888;2023-05-17T00:31:03;17.37;79.08
70089;HTU21D;57460;47.134;19.888;2023-05-17T00:33:29;17.31;78.69
70089;HTU21D;57460;47.134;19.888;2023-05-17T00:35:55;17.32;78.92
70089;HTU21D;57460;47.134;19.888;2023-05-17T00:38:21;17.23;78.58
70089;HTU21D;57460;47.134;19.888;2023-05-17T00:40:48;17.13;78.80
70089;HTU21D;57460;47.134;19.888;2023-05-17T00:43:14;16.98;78.47
70089;HTU21D;57460;47.134;19.888;2023-05-17T00:45:40;16.82;79.18
70089;HTU21D;57460;47.134;19.888;2023-05-17T00:48:06;16.69;79.85
70089;HTU21D;57460;47.134;19.888;2023-05-17T00:50:32;16.65;80.17
70089;HTU21D;57460;47.134;19.888;2023-05-17T00:52:58;16.67;79.94
70089;HTU21D;57460;47.134;19.888;2023-05-17T00:55:24;16.70;79.36
70089;HTU21D;57460;47.134;19.888;2023-05-17T00:57:50;16.41;80.81
70089;HTU21D;57460;47.134;19.888;2023-05-17T01:00:16;16.40;80.70
70089;HTU21D;57460;47.134;19.888;2023-05-17T01:02:43;16.35;80.62
70089;HTU21D;57460;47.134;19.888;2023-05-17T01:05:09;16.42;80.06
70089;HTU21D;57460;47.134;19.888;2023-05-17T01:07:35;16.28;80.43
70089;HTU21D;57460;47.134;19.888;2023-05-17T01:10:01;16.31;80.17
70089;HTU21D;57460;47.134;19.888;2023-05-17T01:13:02;16.30;79.56
70089;HTU21D;57460;47.134;19.888;2023-05-17T01:15:37;16.16;80.53
70089;HTU21D;57460;47.134;19.888;2023-05-17T01:20:37;16.20;80.75
70089;HTU21D;57460;47.134;19.888;2023-05-17T01:28:30;16.19;80.44
70089;HTU21D;57460;47.134;19.888;2023-05-17T01:31:01;16.21;80.32
70089;HTU21D;57460;47.134;19.888;2023-05-17T01:33:28;16.19;80.11
70089;HTU21D;57460;47.134;19.888;2023-05-17T01:35:55;16.21;80.07
70089;HTU21D;57460;47.134;19.888;2023-05-17T01:38:21;16.26;79.70
70089;HTU21D;57460;47.134;19.888;2023-05-17T01:41:04;16.21;79.50
70089;HTU21D;57460;47.134;19.888;2023-05-17T01:43:40;16.20;79.26
70089;HTU21D;57460;47.134;19.888;2023-05-17T01:46:15;16.13;79.13
70089;HTU21D;57460;47.134;19.888;2023-05-17T01:49:07;16.04;78.59
70089;HTU21D;57460;47.134;19.888;2023-05-17T01:51:46;15.89;79.03
70089;HTU21D;57460;47.134;19.888;2023-05-17T01:54:16;15.62;79.93
70089;HTU21D;57460;47.134;19.888;2023-05-17T01:56:47;15.54;80.73
70089;HTU21D;57460;47.134;19.888;2023-05-17T02:02:23;15.67;80.79
70089;HTU21D;57460;47.134;19.888;2023-05-17T02:04:49;15.73;80.34
70089;HTU21D;57460;47.134;19.888;2023-05-17T02:07:16;15.75;79.78
70089;HTU21D;57460;47.134;19.888;2023-05-17T02:09:41;15.73;79.92
70089;HTU21D;57460;47.134;19.888;2023-05-17T02:12:07;15.74;79.79
70089;HTU21D;57460;47.134;19.888;2023-05-17T02:14:33;15.77;79.43
70089;HTU21D;57460;47.134;19.888;2023-05-17T02:16:59;15.76;79.27
70089;HTU21D;57460;47.134;19.888;2023-05-17T02:19:25;15.81;78.95
70089;HTU21D;57460;47.134;19.888;2023-05-17T02:21:50;15.66;78.10
70089;HTU21D;57460;47.134;19.888;2023-05-17T02:24:16;15.54;79.15
70089;HTU21D;57460;47.134;19.888;2023-05-17T02:26:42;15.44;79.46
70089;HTU21D;57460;47.134;19.888;2023-05-17T02:29:08;15.37;79.59
70089;HTU21D;57460;47.134;19.888;2023-05-17T02:31:37;15.30;79.87
70089;HTU21D;57460;47.134;19.888;2023-05-17T02:34:03;15.27;79.97
70089;HTU21D;57460;47.134;19.888;2023-05-17T02:36:29;15.26;80.40
70089;HTU21D;57460;47.134;19.888;2023-05-17T02:38:55;15.19;79.53
70089;HTU21D;57460;47.134;19.888;2023-05-17T02:41:21;15.10;80.04
70089;HTU21D;57460;47.134;19.888;2023-05-17T02:43:46;15.11;80.49
70089;HTU21D;57460;47.134;19.888;2023-05-17T02:46:12;15.14;80.39
70089;HTU21D;57460;47.134;19.888;2023-05-17T02:48:38;15.21;80.24
70089;HTU21D;57460;47.134;19.888;2023-05-17T02:51:04;15.25;80.03
70089;HTU21D;57460;47.134;19.888;2023-05-17T02:53:30;15.28;79.97
70089;HTU21D;57460;47.134;19.888;2023-05-17T02:55:55;15.30;79.80
70089;HTU21D;57460;47.134;19.888;2023-05-17T02:58:25;15.22;79.01
70089;HTU21D;57460;47.134;19.888;2023-05-17T03:00:51;14.98;79.12
70089;HTU21D;57460;47.134;19.888;2023-05-17T03:03:17;14.80;80.14
70089;HTU21D;57460;47.134;19.888;2023-05-17T03:05:42;14.79;82.39
70089;HTU21D;57460;47.134;19.888;2023-05-17T03:08:08;14.85;83.35
70089;HTU21D;57460;47.134;19.888;2023-05-17T03:10:34;14.92;82.83
70089;HTU21D;57460;47.134;19.888;2023-05-17T03:13:00;14.98;82.78
70089;HTU21D;57460;47.134;19.888;2023-05-17T03:15:26;15.07;82.56
70089;HTU21D;57460;47.134;19.888;2023-05-17T03:17:57;15.14;82.50
70089;HTU21D;57460;47.134;19.888;2023-05-17T03:20:23;15.22;82.27
70089;HTU21D;57460;47.134;19.888;2023-05-17T03:22:48;15.28;82.07
70089;HTU21D;57460;47.134;19.888;2023-05-17T03:25:14;15.34;82.26
70089;HTU21D;57460;47.134;19.888;2023-05-17T03:27:40;15.39;82.20
70089;HTU21D;57460;47.134;19.888;2023-05-17T03:30:06;15.52;80.65
70089;HTU21D;57460;47.134;19.888;2023-05-17T03:32:32;15.57;80.54
70089;HTU21D;57460;47.134;19.888;2023-05-17T03:34:58;15.61;80.03
70089;HTU21D;57460;47.134;19.888;2023-05-17T03:37:24;15.67;79.67
70089;HTU21D;57460;47.134;19.888;2023-05-17T03:39:50;15.61;79.56
70089;HTU21D;57460;47.134;19.888;2023-05-17T03:42:16;15.57;79.85
70089;HTU21D;57460;47.134;19.888;2023-05-17T03:44:41;15.57;79.89
70089;HTU21D;57460;47.134;19.888;2023-05-17T03:47:07;15.61;80.16
70089;HTU21D;57460;47.134;19.888;2023-05-17T03:49:33;15.69;79.77
70089;HTU21D;57460;47.134;19.888;2023-05-17T03:51:58;15.72;80.07
70089;HTU21D;57460;47.134;19.888;2023-05-17T03:54:24;15.71;81.06
70089;HTU21D;57460;47.134;19.888;2023-05-17T03:56:50;15.70;80.64
70089;HTU21D;57460;47.134;19.888;2023-05-17T03:59:16;15.81;79.88
70089;HTU21D;57460;47.134;19.888;2023-05-17T04:01:42;15.87;79.59
70089;HTU21D;57460;47.134;19.888;2023-05-17T04:04:08;15.93;79.35
70089;HTU21D;57460;47.134;19.888;2023-05-17T04:06:34;16.03;78.61
70089;HTU21D;57460;47.134;19.888;2023-05-17T04:09:00;15.96;80.09
70089;HTU21D;57460;47.134;19.888;2023-05-17T04:11:26;15.95;80.07
70089;HTU21D;57460;47.134;19.888;2023-05-17T04:13:53;16.00;80.21
70089;HTU21D;57460;47.134;19.888;2023-05-17T04:16:19;16.07;79.05
70089;HTU21D;57460;47.134;19.888;2023-05-17T04:18:46;16.08;79.21
70089;HTU21D;57460;47.134;19.888;2023-05-17T04:21:12;16.10;78.96
70089;HTU21D;57460;47.134;19.888;2023-05-17T04:23:38;16.12;79.15
70089;HTU21D;57460;47.134;19.888;2023-05-17T04:26:04;16.12;79.93
70089;HTU21D;57460;47.134;19.888;2023-05-17T04:28:31;16.14;79.86
70089;HTU21D;57460;47.134;19.888;2023-05-17T04:30:59;16.20;78.93
70089;HTU21D;57460;47.134;19.888;2023-05-17T04:33:25;16.15;79.80
70089;HTU21D;57460;47.134;19.888;2023-05-17T04:35:54;16.21;80.06
70089;HTU21D;57460;47.134;19.888;2023-05-17T04:38:20;16.24;80.47
70089;HTU21D;57460;47.134;19.888;2023-05-17T04:40:46;16.32;79.84
70089;HTU21D;57460;47.134;19.888;2023-05-17T04:43:11;16.40;80.62
70089;HTU21D;57460;47.134;19.888;2023-05-17T04:45:37;16.46;80.40
70089;HTU21D;57460;47.134;19.888;2023-05-17T04:48:03;16.54;80.42
70089;HTU21D;57460;47.134;19.888;2023-05-17T04:50:29;16.62;80.59
70089;HTU21D;57460;47.134;19.888;2023-05-17T04:52:55;16.63;80.62
70089;HTU21D;57460;47.134;19.888;2023-05-17T04:55:21;16.67;81.16
70089;HTU21D;57460;47.134;19.888;2023-05-17T04:57:47;16.70;81.39
70089;HTU21D;57460;47.134;19.888;2023-05-17T05:00:14;16.73;80.35
70089;HTU21D;57460;47.134;19.888;2023-05-17T05:02:40;16.75;81.20
70089;HTU21D;57460;47.134;19.888;2023-05-17T05:05:07;16.80;81.17
70089;HTU21D;57460;47.134;19.888;2023-05-17T05:07:34;16.88;81.24
70089;HTU21D;57460;47.134;19.888;2023-05-17T05:10:00;16.94;81.08
70089;HTU21D;57460;47.134;19.888;2023-05-17T05:12:25;16.99;81.30
70089;HTU21D;57460;47.134;19.888;2023-05-17T05:14:51;17.03;81.04
70089;HTU21D;57460;47.134;19.888;2023-05-17T05:17:17;17.08;81.17
70089;HTU21D;57460;47.134;19.888;2023-05-17T05:19:43;17.14;81.05
70089;HTU21D;57460;47.134;19.888;2023-05-17T05:22:09;17.21;80.72
70089;HTU21D;57460;47.134;19.888;2023-05-17T05:24:35;17.24;80.75
70089;HTU21D;57460;47.134;19.888;2023-05-17T05:27:01;17.29;80.47
70089;HTU21D;57460;47.134;19.888;2023-05-17T05:29:27;17.35;80.73
70089;HTU21D;57460;47.134;19.888;2023-05-17T05:31:53;17.40;80.71
70089;HTU21D;57460;47.134;19.888;2023-05-17T05:34:18;17.45;80.56
70089;HTU21D;57460;47.134;19.888;2023-05-17T05:36:44;17.52;80.32
70089;HTU21D;57460;47.134;19.888;2023-05-17T05:39:10;17.62;80.00
70089;HTU21D;57460;47.134;19.888;2023-05-17T05:41:37;17.77;79.48
70089;HTU21D;57460;47.134;19.888;2023-05-17T05:44:03;17.83;79.65
70089;HTU21D;57460;47.134;19.888;2023-05-17T05:46:28;17.90;79.08
70089;HTU21D;57460;47.134;19.888;2023-05-17T05:48:54;17.94;79.29
70089;HTU21D;57460;47.134;19.888;2023-05-17T05:51:20;17.98;79.30
70089;HTU21D;57460;47.134;19.888;2023-05-17T05:53:46;18.04;79.04
70089;HTU21D;57460;47.134;19.888;2023-05-17T05:56:11;18.06;79.00
70089;HTU21D;57460;47.134;19.888;2023-05-17T05:58:37;18.11;79.07
70089;HTU21D;57460;47.134;19.888;2023-05-17T06:01:03;18.15;78.39
70089;HTU21D;57460;47.134;19.888;2023-05-17T06:03:29;18.15;78.37
70089;HTU21D;57460;47.134;19.888;2023-05-17T06:05:55;18.14;78.82
70089;HTU21D;57460;47.134;19.888;2023-05-17T06:08:20;18.13;79.01
70089;HTU21D;57460;47.134;19.888;2023-05-17T06:10:46;18.07;79.54
70089;HTU21D;57460;47.134;19.888;2023-05-17T06:13:12;17.99;79.27
70089;HTU21D;57460;47.134;19.888;2023-05-17T06:15:39;17.98;79.69
70089;HTU21D;57460;47.134;19.888;2023-05-17T06:18:08;17.96;79.73
70089;HTU21D;57460;47.134;19.888;2023-05-17T06:20:45;17.99;79.78
70089;HTU21D;57460;47.134;19.888;2023-05-17T06:23:29;18.04;79.66
70089;HTU21D;57460;47.134;19.888;2023-05-17T06:26:01;18.03;79.77
70089;HTU21D;57460;47.134;19.888;2023-05-17T06:28:40;17.97;79.99
70089;HTU21D;57460;47.134;19.888;2023-05-17T06:31:06;17.96;79.62
70089;HTU21D;57460;47.134;19.888;2023-05-17T06:33:41;17.90;80.25
70089;HTU21D;57460;47.134;19.888;2023-05-17T06:36:21;17.85;80.33
70089;HTU21D;57460;47.134;19.888;2023-05-17T06:38:54;17.82;80.07
70089;HTU21D;57460;47.134;19.888;2023-05-17T06:41:29;17.84;80.30
70089;HTU21D;57460;47.134;19.888;2023-05-17T06:44:38;17.87;80.19
70089;HTU21D;57460;47.134;19.888;2023-05-17T06:47:10;17.80;80.39
70089;HTU21D;57460;47.134;19.888;2023-05-17T06:49:37;17.77;80.28
70089;HTU21D;57460;47.134;19.888;2023-05-17T06:52:14;17.74;80.57
70089;HTU21D;57460;47.134;19.888;2023-05-17T06:54:56;17.75;80.66
70089;HTU21D;57460;47.134;19.888;2023-05-17T06:57:22;17.79;80.15
70089;HTU21D;57460;47.134;19.888;2023-05-17T06:59:51;17.80;80.68
70089;HTU21D;57460;47.134;19.888;2023-05-17T07:02:18;17.81;80.62
70089;HTU21D;57460;47.134;19.888;2023-05-17T07:05:05;17.87;80.05
70089;HTU21D;57460;47.134;19.888;2023-05-17T07:07:31;17.89;80.57
70089;HTU21D;57460;47.134;19.888;2023-05-17T07:13:06;17.93;79.27
70089;HTU21D;57460;47.134;19.888;2023-05-17T07:15:32;17.98;79.10
70089;HTU21D;57460;47.134;19.888;2023-05-17T07:17:58;18.04;79.29
70089;HTU21D;57460;47.134;19.888;2023-05-17T07:20:24;18.05;79.88
70089;HTU21D;57460;47.134;19.888;2023-05-17T07:22:50;18.07;80.36
70089;HTU21D;57460;47.134;19.888;2023-05-17T07:25:16;18.11;79.88
70089;HTU21D;57460;47.134;19.888;2023-05-17T07:27:44;18.17;79.84
70089;HTU21D;57460;47.134;19.888;2023-05-17T07:30:10;18.32;78.44
70089;HTU21D;57460;47.134;19.888;2023-05-17T07:32:36;18.35;78.31
70089;HTU21D;57460;47.134;19.888;2023-05-17T07:35:02;18.49;77.71
70089;HTU21D;57460;47.134;19.888;2023-05-17T07:37:28;18.33;79.01
70089;HTU21D;57460;47.134;19.888;2023-05-17T07:39:55;18.38;78.40
70089;HTU21D;57460;47.134;19.888;2023-05-17T07:42:42;18.40;78.13
70089;HTU21D;57460;47.134;19.888;2023-05-17T07:45:12;18.37;78.47
70089;HTU21D;57460;47.134;19.888;2023-05-17T07:47:38;18.40;78.52
70089;HTU21D;57460;47.134;19.888;2023-05-17T07:50:04;18.47;78.48
70089;HTU21D;57460;47.134;19.888;2023-05-17T07:52:30;18.52;78.75
70089;HTU21D;57460;47.134;19.888;2023-05-17T07:55:12;18.70;77.74
70089;HTU21D;57460;47.134;19.888;2023-05-17T07:57:59;18.78;77.56
70089;HTU21D;57460;47.134;19.888;2023-05-17T08:00:31;18.71;79.19
70089;HTU21D;57460;47.134;19.888;2023-05-17T08:03:34;18.70;78.95
70089;HTU21D;57460;47.134;19.888;2023-05-17T08:06:07;18.63;79.46
70089;HTU21D;57460;47.134;19.888;2023-05-17T08:08:42;18.61;79.69
70089;HTU21D;57460;47.134;19.888;2023-05-17T08:11:10;18.68;79.71
70089;HTU21D;57460;47.134;19.888;2023-05-17T08:13:36;18.73;79.69
70089;HTU21D;57460;47.134;19.888;2023-05-17T08:16:02;18.82;79.45
70089;HTU21D;57460;47.134;19.888;2023-05-17T08:18:32;18.93;79.13
70089;HTU21D;57460;47.134;19.888;2023-05-17T08:20:58;19.09;77.88
70089;HTU21D;57460;47.134;19.888;2023-05-17T08:23:24;19.12;77.62
70089;HTU21D;57460;47.134;19.888;2023-05-17T08:25:50;19.21;77.31
70089;HTU21D;57460;47.134;19.888;2023-05-17T08:28:17;19.25;77.57
70089;HTU21D;57460;47.134;19.888;2023-05-17T08:30:43;19.35;77.31
70089;HTU21D;57460;47.134;19.888;2023-05-17T08:33:09;19.43;77.23
70089;HTU21D;57460;47.134;19.888;2023-05-17T08:35:35;19.53;76.66
70089;HTU21D;57460;47.134;19.888;2023-05-17T08:38:01;19.58;76.41
70089;HTU21D;57460;47.134;19.888;2023-05-17T08:40:27;19.61;76.60
70089;HTU21D;57460;47.134;19.888;2023-05-17T08:42:53;19.61;77.14
70089;HTU21D;57460;47.134;19.888;2023-05-17T08:45:22;19.70;77.36
70089;HTU21D;57460;47.134;19.888;2023-05-17T08:47:52;19.75;77.42
70089;HTU21D;57460;47.134;19.888;2023-05-17T08:50:21;19.81;77.12
70089;HTU21D;57460;47.134;19.888;2023-05-17T08:55:23;19.99;76.31
70089;HTU21D;57460;47.134;19.888;2023-05-17T08:57:50;20.11;76.36
70089;HTU21D;57460;47.134;19.888;2023-05-17T09:00:20;20.35;75.89
70089;HTU21D;57460;47.134;19.888;2023-05-17T09:02:49;20.47;75.13
70089;HTU21D;57460;47.134;19.888;2023-05-17T09:05:15;20.72;74.37
70089;HTU21D;57460;47.134;19.888;2023-05-17T09:07:41;20.81;74.57
70089;HTU21D;57460;47.134;19.888;2023-05-17T09:10:08;21.00;74.52
70089;HTU21D;57460;47.134;19.888;2023-05-17T09:12:34;21.17;72.25
70089;HTU21D;57460;47.134;19.888;2023-05-17T09:15:13;21.24;73.39
70089;HTU21D;57460;47.134;19.888;2023-05-17T09:17:40;21.35;73.12
70089;HTU21D;57460;47.134;19.888;2023-05-17T09:20:07;21.40;70.37
70089;HTU21D;57460;47.134;19.888;2023-05-17T09:22:37;21.57;74.06
70089;HTU21D;57460;47.134;19.888;2023-05-17T09:25:29;21.93;71.92
70089;HTU21D;57460;47.134;19.888;2023-05-17T09:28:04;22.14;69.97
70089;HTU21D;57460;47.134;19.888;2023-05-17T09:30:56;22.33;70.50
70089;HTU21D;57460;47.134;19.888;2023-05-17T09:33:23;22.56;70.80
70089;HTU21D;57460;47.134;19.888;2023-05-17T09:35:55;22.69;69.59
70089;HTU21D;57460;47.134;19.888;2023-05-17T09:38:25;22.81;68.65
70089;HTU21D;57460;47.134;19.888;2023-05-17T09:41:05;22.94;68.76
70089;HTU21D;57460;47.134;19.888;2023-05-17T09:43:42;22.95;67.40
70089;HTU21D;57460;47.134;19.888;2023-05-17T09:46:08;22.95;67.72
70089;HTU21D;57460;47.134;19.888;2023-05-17T09:48:37;22.80;67.97
70089;HTU21D;57460;47.134;19.888;2023-05-17T09:51:05;22.66;66.55
70089;HTU21D;57460;47.134;19.888;2023-05-17T09:53:34;22.65;69.39
70089;HTU21D;57460;47.134;19.888;2023-05-17T09:56:05;22.63;65.42
70089;HTU21D;57460;47.134;19.888;2023-05-17T09:58:32;22.69;66.96
70089;HTU21D;57460;47.134;19.888;2023-05-17T10:01:01;22.78;67.91
70089;HTU21D;57460;47.134;19.888;2023-05-17T10:03:46;22.91;67.95
70089;HTU21D;57460;47.134;19.888;2023-05-17T10:06:12;22.80;64.72
70089;HTU21D;57460;47.134;19.888;2023-05-17T10:08:43;22.70;66.80
70089;HTU21D;57460;47.134;19.888;2023-05-17T10:11:10;22.69;68.55
70089;HTU21D;57460;47.134;19.888;2023-05-17T10:13:45;22.77;66.59
70089;HTU21D;57460;47.134;19.888;2023-05-17T10:16:12;22.77;65.38
70089;HTU21D;57460;47.134;19.888;2023-05-17T10:18:39;22.73;68.23
70089;HTU21D;57460;47.134;19.888;2023-05-17T10:21:06;22.90;69.71
70089;HTU21D;57460;47.134;19.888;2023-05-17T10:23:33;23.13;65.82
70089;HTU21D;57460;47.134;19.888;2023-05-17T10:26:00;23.35;62.93
70089;HTU21D;57460;47.134;19.888;2023-05-17T10:28:29;23.40;61.98
70089;HTU21D;57460;47.134;19.888;2023-05-17T10:30:56;23.40;64.85
70089;HTU21D;57460;47.134;19.888;2023-05-17T10:33:25;23.24;62.03
70089;HTU21D;57460;47.134;19.888;2023-05-17T10:35:54;23.21;65.73
70089;HTU21D;57460;47.134;19.888;2023-05-17T10:38:20;23.22;62.82
70089;HTU21D;57460;47.134;19.888;2023-05-17T10:40:50;23.28;65.44
70089;HTU21D;57460;47.134;19.888;2023-05-17T10:43:19;23.34;62.77
70089;HTU21D;57460;47.134;19.888;2023-05-17T10:45:46;23.35;62.35
70089;HTU21D;57460;47.134;19.888;2023-05-17T10:48:14;23.53;65.87
70089;HTU21D;57460;47.134;19.888;2023-05-17T10:50:45;23.75;65.13
70089;HTU21D;57460;47.134;19.888;2023-05-17T10:53:12;23.57;60.01
70089;HTU21D;57460;47.134;19.888;2023-05-17T10:55:42;23.34;59.68
70089;HTU21D;57460;47.134;19.888;2023-05-17T10:58:17;23.26;63.92
70089;HTU21D;57460;47.134;19.888;2023-05-17T11:00:46;23.35;63.91
70089;HTU21D;57460;47.134;19.888;2023-05-17T11:03:17;23.31;61.47
70089;HTU21D;57460;47.134;19.888;2023-05-17T11:08:44;23.29;64.20
70089;HTU21D;57460;47.134;19.888;2023-05-17T11:11:18;23.34;65.16
70089;HTU21D;57460;47.134;19.888;2023-05-17T11:13:54;23.41;64.47
70089;HTU21D;57460;47.134;19.888;2023-05-17T11:16:23;23.37;63.42
70089;HTU21D;57460;47.134;19.888;2023-05-17T11:18:51;23.28;64.60
70089;HTU21D;57460;47.134;19.888;2023-05-17T11:21:20;23.25;62.55
70089;HTU21D;57460;47.134;19.888;2023-05-17T11:23:52;23.25;62.09
70089;HTU21D;57460;47.134;19.888;2023-05-17T11:26:31;23.18;64.54
70089;HTU21D;57460;47.134;19.888;2023-05-17T11:29:06;23.01;62.08
70089;HTU21D;57460;47.134;19.888;2023-05-17T11:31:35;22.91;62.45
70089;HTU21D;57460;47.134;19.888;2023-05-17T11:34:04;23.07;66.13
70089;HTU21D;57460;47.134;19.888;2023-05-17T11:36:50;23.53;65.85
70089;HTU21D;57460;47.134;19.888;2023-05-17T11:39:22;23.94;63.98
70089;HTU21D;57460;47.134;19.888;2023-05-17T11:41:55;24.41;61.29
70089;HTU21D;57460;47.134;19.888;2023-05-17T11:44:32;24.71;62.17
70089;HTU21D;57460;47.134;19.888;2023-05-17T11:47:06;24.94;57.74
70089;HTU21D;57460;47.134;19.888;2023-05-17T11:49:39;25.15;58.66
70089;HTU21D;57460;47.134;19.888;2023-05-17T11:52:06;25.42;57.76
70089;HTU21D;57460;47.134;19.888;2023-05-17T11:54:33;25.60;58.68
70089;HTU21D;57460;47.134;19.888;2023-05-17T11:56:59;25.80;57.50
70089;HTU21D;57460;47.134;19.888;2023-05-17T11:59:28;25.75;56.50
70089;HTU21D;57460;47.134;19.888;2023-05-17T12:01:53;25.58;53.75
70089;HTU21D;57460;47.134;19.888;2023-05-17T12:04:25;25.49;57.32
70089;HTU21D;57460;47.134;19.888;2023-05-17T12:06:53;25.36;56.52
70089;HTU21D;57460;47.134;19.888;2023-05-17T12:09:19;25.13;57.96
70089;HTU21D;57460;47.134;19.888;2023-05-17T12:11:46;24.93;59.12
70089;HTU21D;57460;47.134;19.888;2023-05-17T12:14:17;24.83;59.63
70089;HTU21D;57460;47.134;19.888;2023-05-17T12:16:44;24.73;60.54
70089;HTU21D;57460;47.134;19.888;2023-05-17T12:19:22;24.50;59.09
70089;HTU21D;57460;47.134;19.888;2023-05-17T12:21:49;24.40;61.15
70089;HTU21D;57460;47.134;19.888;2023-05-17T12:24:15;24.24;60.78
70089;HTU21D;57460;47.134;19.888;2023-05-17T12:26:45;24.12;61.10
70089;HTU21D;57460;47.134;19.888;2023-05-17T12:29:13;24.02;59.35
70089;HTU21D;57460;47.134;19.888;2023-05-17T12:31:47;23.94;61.89
70089;HTU21D;57460;47.134;19.888;2023-05-17T12:34:15;23.98;62.70
70089;HTU21D;57460;47.134;19.888;2023-05-17T12:36:42;24.00;62.35
70089;HTU21D;57460;47.134;19.888;2023-05-17T12:39:10;24.12;60.61
70089;HTU21D;57460;47.134;19.888;2023-05-17T12:41:37;24.26;62.16
70089;HTU21D;57460;47.134;19.888;2023-05-17T12:44:06;24.45;59.47
70089;HTU21D;57460;47.134;19.888;2023-05-17T12:46:33;24.58;57.79
70089;HTU21D;57460;47.134;19.888;2023-05-17T12:49:07;24.58;61.44
70089;HTU21D;57460;47.134;19.888;2023-05-17T12:51:45;24.59;57.87
70089;HTU21D;57460;47.134;19.888;2023-05-17T12:56:51;24.42;60.35
70089;HTU21D;57460;47.134;19.888;2023-05-17T12:59:18;24.40;60.86
70089;HTU21D;57460;47.134;19.888;2023-05-17T13:01:50;24.17;59.23
70089;HTU21D;57460;47.134;19.888;2023-05-17T13:04:17;24.03;58.80
70089;HTU21D;57460;47.134;19.888;2023-05-17T13:06:44;23.84;58.14
70089;HTU21D;57460;47.134;19.888;2023-05-17T13:09:22;23.69;57.87
70089;HTU21D;57460;47.134;19.888;2023-05-17T13:11:54;23.66;61.45
70089;HTU21D;57460;47.134;19.888;2023-05-17T13:14:39;23.52;61.66
70089;HTU21D;57460;47.134;19.888;2023-05-17T13:17:11;23.15;63.39
70089;HTU21D;57460;47.134;19.888;2023-05-17T13:19:38;22.77;65.87
70089;HTU21D;57460;47.134;19.888;2023-05-17T13:22:05;22.53;65.09
70089;HTU21D;57460;47.134;19.888;2023-05-17T13:24:36;22.11;68.94
70089;HTU21D;57460;47.134;19.888;2023-05-17T13:27:03;21.76;68.93
70089;HTU21D;57460;47.134;19.888;2023-05-17T13:29:31;21.69;67.89
70089;HTU21D;57460;47.134;19.888;2023-05-17T13:31:57;21.44;68.41
70089;HTU21D;57460;47.134;19.888;2023-05-17T13:34:22;21.28;69.27
70089;HTU21D;57460;47.134;19.888;2023-05-17T13:36:48;21.13;70.27
70089;HTU21D;57460;47.134;19.888;2023-05-17T13:39:17;21.06;70.59
70089;HTU21D;57460;47.134;19.888;2023-05-17T13:41:44;20.92;71.03
70089;HTU21D;57460;47.134;19.888;2023-05-17T13:44:10;20.85;70.95
70089;HTU21D;57460;47.134;19.888;2023-05-17T13:46:36;20.62;72.58
70089;HTU21D;57460;47.134;19.888;2023-05-17T13:49:02;20.55;72.48
70089;HTU21D;57460;47.134;19.888;2023-05-17T13:51:32;20.58;73.06
70089;HTU21D;57460;47.134;19.888;2023-05-17T13:53:59;20.61;72.19
70089;HTU21D;57460;47.134;19.888;2023-05-17T13:56:26;20.68;72.61
70089;HTU21D;57460;47.134;19.888;2023-05-17T13:58:52;20.74;71.75
70089;HTU21D;57460;47.134;19.888;2023-05-17T14:01:18;20.84;72.02
70089;HTU21D;57460;47.134;19.888;2023-05-17T14:03:44;20.88;71.48
70089;HTU21D;57460;47.134;19.888;2023-05-17T14:06:10;20.98;71.70
70089;HTU21D;57460;47.134;19.888;2023-05-17T14:08:36;21.04;71.58
70089;HTU21D;57460;47.134;19.888;2023-05-17T14:11:02;21.22;69.76
70089;HTU21D;57460;47.134;19.888;2023-05-17T14:13:28;21.18;70.28
70089;HTU21D;57460;47.134;19.888;2023-05-17T14:15:54;21.16;70.68
70089;HTU21D;57460;47.134;19.888;2023-05-17T14:18:20;21.08;71.81
70089;HTU21D;57460;47.134;19.888;2023-05-17T14:20:45;21.02;73.89
70089;HTU21D;57460;47.134;19.888;2023-05-17T14:23:11;21.07;75.38
70089;HTU21D;57460;47.134;19.888;2023-05-17T14:25:37;21.04;76.16
70089;HTU21D;57460;47.134;19.888;2023-05-17T14:28:04;21.06;75.41
70089;HTU21D;57460;47.134;19.888;2023-05-17T14:30:49;21.11;74.51
70089;HTU21D;57460;47.134;19.888;2023-05-17T14:33:16;21.21;74.36
70089;HTU21D;57460;47.134;19.888;2023-05-17T14:35:42;21.38;73.57
70089;HTU21D;57460;47.134;19.888;2023-05-17T14:38:08;21.45;75.15
70089;HTU21D;57460;47.134;19.888;2023-05-17T14:40:34;21.43;74.64
70089;HTU21D;57460;47.134;19.888;2023-05-17T14:43:00;21.51;73.06
70089;HTU21D;57460;47.134;19.888;2023-05-17T14:45:26;21.55;73.66
70089;HTU21D;57460;47.134;19.888;2023-05-17T14:47:52;21.66;72.17
70089;HTU21D;57460;47.134;19.888;2023-05-17T14:50:17;21.74;71.51
70089;HTU21D;57460;47.134;19.888;2023-05-17T14:52:43;21.72;72.34
70089;HTU21D;57460;47.134;19.888;2023-05-17T14:55:09;21.72;71.81
70089;HTU21D;57460;47.134;19.888;2023-05-17T14:57:35;21.69;72.67
70089;HTU21D;57460;47.134;19.888;2023-05-17T15:00:01;21.72;74.22
70089;HTU21D;57460;47.134;19.888;2023-05-17T15:02:27;21.82;72.99
70089;HTU21D;57460;47.134;19.888;2023-05-17T15:04:53;22.03;71.69
70089;HTU21D;57460;47.134;19.888;2023-05-17T15:07:19;22.06;71.75
70089;HTU21D;57460;47.134;19.888;2023-05-17T15:09:45;22.16;72.64
70089;HTU21D;57460;47.134;19.888;2023-05-17T15:12:11;22.21;71.98
70089;HTU21D;57460;47.134;19.888;2023-05-17T15:14:38;22.16;72.14
70089;HTU21D;57460;47.134;19.888;2023-05-17T15:17:04;22.17;71.91
70089;HTU21D;57460;47.134;19.888;2023-05-17T15:19:31;22.14;72.02
70089;HTU21D;57460;47.134;19.888;2023-05-17T15:21:57;22.07;71.67
70089;HTU21D;57460;47.134;19.888;2023-05-17T15:24:24;22.13;71.72
70089;HTU21D;57460;47.134;19.888;2023-05-17T15:26:50;21.93;71.91
70089;HTU21D;57460;47.134;19.888;2023-05-17T15:29:16;21.88;71.31
70089;HTU21D;57460;47.134;19.888;2023-05-17T15:31:41;21.88;71.71
70089;HTU21D;57460;47.134;19.888;2023-05-17T15:34:07;21.79;71.16